Time;durP1;ratioP1;P1;durP2;ratioP2;P2;SDS_P1;SDS_P2;PMS_P1;PMS_P2;Temp;Humidity;BMP_temperature;BMP_pressure;BME280_temperature;BME280_humidity;BME280_pressure;Samples;Min_cycle;Max_cycle;Signal;HPM_P1;HPM_P2
2021/08/11 00:00:29;;;;;;;12.73;8.70;;;14.70;99.90;;;;;;5043348;28;20188;-48
2021/08/11 00:02:56;;;;;;;9.17;8.30;;;14.70;99.90;;;;;;5034574;28;20199;-49
2021/08/11 00:05:23;;;;;;;12.03;8.33;;;14.60;99.90;;;;;;5028445;28;20217;-46
2021/08/11 00:07:51;;;;;;;10.93;8.23;;;14.60;99.90;;;;;;5039291;28;20207;-50
2021/08/11 00:10:18;;;;;;;8.97;7.80;;;14.60;99.90;;;;;;5043058;28;20203;-45
2021/08/11 00:12:44;;;;;;;9.17;7.67;;;14.60;99.90;;;;;;5051963;28;20248;-53
2021/08/11 00:15:12;;;;;;;10.00;8.70;;;14.60;99.90;;;;;;5044792;28;20238;-48
2021/08/11 00:17:39;;;;;;;9.37;8.30;;;14.60;99.90;;;;;;5037176;28;20195;-53
2021/08/11 00:20:07;;;;;;;12.53;7.90;;;14.60;99.90;;;;;;5024597;28;20930;-49
2021/08/11 00:22:34;;;;;;;8.63;7.57;;;14.60;99.90;;;;;;5038477;28;20202;-55
2021/08/11 00:25:02;;;;;;;11.77;8.17;;;14.60;99.90;;;;;;5039896;28;20187;-46
2021/08/11 00:27:29;;;;;;;12.57;8.60;;;14.50;99.90;;;;;;5042564;28;20184;-46
2021/08/11 00:29:56;;;;;;;8.43;7.53;;;14.50;99.90;;;;;;5033644;28;20196;-48
2021/08/11 00:32:23;;;;;;;10.47;8.07;;;14.60;99.90;;;;;;5037021;28;20191;-44
2021/08/11 00:34:50;;;;;;;8.77;7.87;;;14.50;99.90;;;;;;5025183;28;20593;-52
2021/08/11 00:37:17;;;;;;;13.20;8.83;;;14.50;99.90;;;;;;5034653;28;20203;-45
2021/08/11 00:39:47;;;;;;;11.43;8.37;;;14.50;99.90;;;;;;5039664;28;20215;-51
2021/08/11 00:42:15;;;;;;;8.83;7.80;;;14.50;99.90;;;;;;5039592;28;20657;-46
2021/08/11 00:44:42;;;;;;;9.87;7.90;;;14.50;99.90;;;;;;5039735;28;20210;-46
2021/08/11 00:47:09;;;;;;;9.00;7.70;;;14.50;99.90;;;;;;5030690;28;20269;-50
2021/08/11 00:49:40;;;;;;;10.43;7.93;;;14.50;99.90;;;;;;5039664;28;20215;-49
2021/08/11 00:52:09;;;;;;;10.27;8.37;;;14.50;99.90;;;;;;5024888;28;20217;-45
2021/08/11 00:54:37;;;;;;;10.33;8.20;;;14.40;99.90;;;;;;5037656;28;20195;-48
2021/08/11 00:57:05;;;;;;;8.93;7.70;;;14.40;99.90;;;;;;5038422;28;20192;-46
2021/08/11 00:59:38;;;;;;;9.33;8.33;;;14.40;99.90;;;;;;5039171;28;20211;-48
2021/08/11 01:02:07;;;;;;;10.33;8.83;;;14.40;99.90;;;;;;5029215;28;20208;-47
2021/08/11 01:04:35;;;;;;;11.20;7.87;;;14.30;99.90;;;;;;5037016;28;20207;-48
2021/08/11 01:07:04;;;;;;;9.10;7.57;;;14.40;99.90;;;;;;5023425;28;20296;-48
2021/08/11 01:09:32;;;;;;;15.00;8.40;;;14.40;99.90;;;;;;5040733;28;20218;-50
2021/08/11 01:11:59;;;;;;;11.67;9.37;;;14.40;99.90;;;;;;5037899;28;20207;-47
2021/08/11 01:14:30;;;;;;;12.03;7.90;;;14.40;99.90;;;;;;5041905;28;20191;-53
2021/08/11 01:17:01;;;;;;;9.93;8.57;;;14.30;99.90;;;;;;5029507;28;20223;-50
2021/08/11 01:19:28;;;;;;;11.10;7.93;;;14.30;99.90;;;;;;5036779;28;20231;-51
2021/08/11 01:22:03;;;;;;;10.13;9.00;;;14.30;99.90;;;;;;5042413;28;20900;-51
2021/08/11 01:24:40;;;;;;;10.80;8.60;;;14.30;99.90;;;;;;5026415;28;20211;-47
2021/08/11 01:27:35;;;;;;;10.33;8.87;;;14.30;99.90;;;;;;5037798;28;20544;-50
2021/08/11 01:30:11;;;;;;;9.50;7.83;;;14.30;99.90;;;;;;5050140;28;20286;-51
2021/08/11 01:33:02;;;;;;;11.87;8.37;;;14.30;99.90;;;;;;5032335;28;20198;-48
2021/08/11 01:35:34;;;;;;;10.23;9.20;;;14.30;99.90;;;;;;5031632;28;20214;-47
2021/08/11 01:38:05;;;;;;;11.77;9.20;;;14.30;99.90;;;;;;5024808;28;20219;-49
2021/08/11 01:40:35;;;;;;;11.97;8.47;;;14.30;99.90;;;;;;5041820;28;20253;-51
2021/08/11 01:43:03;;;;;;;12.47;8.23;;;14.20;99.90;;;;;;5040003;28;20195;-51
2021/08/11 01:45:36;;;;;;;12.20;8.30;;;14.20;99.90;;;;;;5042165;28;20200;-45
2021/08/11 01:48:09;;;;;;;8.50;7.60;;;14.20;99.90;;;;;;5038394;28;20245;-51
2021/08/11 01:50:42;;;;;;;12.33;9.20;;;14.20;99.90;;;;;;5030799;28;20954;-45
2021/08/11 01:53:17;;;;;;;13.53;8.53;;;14.10;99.90;;;;;;5028653;28;20338;-45
2021/08/11 01:55:47;;;;;;;10.10;8.43;;;14.10;99.90;;;;;;5049178;28;20196;-48
2021/08/11 01:58:14;;;;;;;13.53;8.87;;;14.10;99.90;;;;;;5037487;28;20813;-47
2021/08/11 02:00:41;;;;;;;13.60;8.43;;;14.10;99.90;;;;;;5048245;28;20187;-49
2021/08/11 02:03:10;;;;;;;10.43;8.80;;;14.10;99.90;;;;;;5041660;28;20502;-50
2021/08/11 02:05:41;;;;;;;9.93;8.83;;;14.00;99.90;;;;;;5046111;28;20210;-45
2021/08/11 02:08:14;;;;;;;13.67;9.30;;;14.10;99.90;;;;;;5018916;28;20227;-45
2021/08/11 02:10:42;;;;;;;10.77;9.43;;;14.10;99.90;;;;;;5044166;28;20196;-47
2021/08/11 02:13:10;;;;;;;9.63;8.47;;;14.00;99.90;;;;;;5034618;28;20187;-47
2021/08/11 02:15:38;;;;;;;12.80;9.03;;;14.00;99.90;;;;;;5045735;28;20195;-47
2021/08/11 02:18:05;;;;;;;12.47;8.53;;;14.00;99.90;;;;;;5038529;28;20218;-52
2021/08/11 02:20:32;;;;;;;11.37;7.90;;;14.00;99.90;;;;;;5043005;28;20687;-45
2021/08/11 02:23:03;;;;;;;11.63;8.87;;;14.00;99.90;;;;;;5045436;28;20195;-47
2021/08/11 02:25:32;;;;;;;9.73;8.50;;;14.00;99.90;;;;;;5029626;28;20215;-47
2021/08/11 02:28:04;;;;;;;11.63;9.33;;;14.00;99.90;;;;;;5041615;28;20211;-53
2021/08/11 02:30:37;;;;;;;8.40;7.60;;;14.00;99.90;;;;;;5042897;28;20226;-46
2021/08/11 02:33:09;;;;;;;11.53;9.47;;;13.90;99.90;;;;;;5045480;28;20435;-54
2021/08/11 02:35:41;;;;;;;9.80;8.87;;;13.90;99.90;;;;;;5039353;28;20230;-46
2021/08/11 02:38:14;;;;;;;10.60;8.43;;;13.90;99.90;;;;;;5036164;28;20230;-52
2021/08/11 02:40:45;;;;;;;9.40;8.43;;;13.90;99.90;;;;;;5030864;28;20199;-53
2021/08/11 02:43:18;;;;;;;12.03;10.27;;;13.90;99.90;;;;;;5030607;28;20194;-46
2021/08/11 02:45:48;;;;;;;14.20;10.73;;;13.80;99.90;;;;;;5040524;28;20841;-46
2021/08/11 02:48:17;;;;;;;10.73;9.13;;;13.80;99.90;;;;;;5037205;28;20223;-51
2021/08/11 02:50:45;;;;;;;13.77;9.63;;;13.80;99.90;;;;;;5038716;28;20196;-50
2021/08/11 02:53:16;;;;;;;16.30;10.37;;;13.80;99.90;;;;;;5035669;28;20207;-49
2021/08/11 02:55:44;;;;;;;13.17;10.07;;;13.80;99.90;;;;;;5026205;28;20215;-44
2021/08/11 02:58:12;;;;;;;14.10;10.00;;;13.70;99.90;;;;;;5043770;28;20704;-54
2021/08/11 03:00:39;;;;;;;13.83;9.93;;;13.80;99.90;;;;;;5040169;28;20187;-44
2021/08/11 03:03:06;;;;;;;13.13;9.90;;;13.70;99.90;;;;;;5044775;28;20195;-45
2021/08/11 03:05:33;;;;;;;14.03;9.73;;;13.70;99.90;;;;;;5032008;28;20205;-45
2021/08/11 03:08:01;;;;;;;13.67;10.03;;;13.70;99.90;;;;;;5037355;28;20680;-43
2021/08/11 03:10:29;;;;;;;12.47;10.03;;;13.70;99.90;;;;;;5039590;28;20241;-48
2021/08/11 03:12:58;;;;;;;12.07;10.50;;;13.70;99.90;;;;;;5026922;28;20823;-50
2021/08/11 03:15:28;;;;;;;16.67;11.30;;;13.60;99.90;;;;;;5040536;28;20199;-50
2021/08/11 03:17:55;;;;;;;12.10;10.17;;;13.60;99.90;;;;;;5044073;28;20601;-43
2021/08/11 03:20:23;;;;;;;11.73;9.70;;;13.60;99.90;;;;;;5040825;28;20660;-50
2021/08/11 03:22:49;;;;;;;12.17;10.33;;;13.60;99.90;;;;;;5043317;28;20241;-45
2021/08/11 03:25:16;;;;;;;12.33;9.50;;;13.50;99.90;;;;;;5041369;28;20191;-49
2021/08/11 03:27:44;;;;;;;11.50;9.43;;;13.50;99.90;;;;;;5024211;28;20294;-47
2021/08/11 03:30:15;;;;;;;14.37;10.20;;;13.50;99.90;;;;;;5043322;28;20210;-49
2021/08/11 03:32:42;;;;;;;12.27;9.80;;;13.50;99.90;;;;;;5040354;28;20221;-46
2021/08/11 03:35:09;;;;;;;12.47;11.13;;;13.40;99.90;;;;;;5042004;28;20274;-44
2021/08/11 03:37:37;;;;;;;13.90;11.47;;;13.40;99.90;;;;;;5040255;28;20229;-41
2021/08/11 03:40:07;;;;;;;19.23;12.77;;;13.40;99.90;;;;;;5042887;28;20245;-44
2021/08/11 03:42:35;;;;;;;18.03;13.43;;;13.40;99.90;;;;;;5023229;28;20373;-41
2021/08/11 03:45:06;;;;;;;14.40;11.80;;;13.40;99.90;;;;;;5035053;28;20601;-42
2021/08/11 03:47:33;;;;;;;18.60;13.13;;;13.40;99.90;;;;;;5038964;28;20188;-45
2021/08/11 03:50:00;;;;;;;20.23;12.10;;;13.40;99.90;;;;;;5042529;28;20290;-45
2021/08/11 03:52:26;;;;;;;15.87;12.17;;;13.40;99.90;;;;;;5039758;28;20230;-48
2021/08/11 03:54:54;;;;;;;17.50;12.07;;;13.40;99.90;;;;;;5042507;28;20345;-48
2021/08/11 03:57:20;;;;;;;20.47;13.53;;;13.40;99.90;;;;;;5032308;28;20655;-51
2021/08/11 03:59:47;;;;;;;18.53;13.37;;;13.40;99.90;;;;;;5035112;28;20947;-42
2021/08/11 04:02:16;;;;;;;16.27;13.43;;;13.40;99.90;;;;;;5034210;28;20204;-52
2021/08/11 04:04:43;;;;;;;19.17;13.93;;;13.40;99.90;;;;;;5035544;28;20214;-43
2021/08/11 04:07:09;;;;;;;16.77;13.13;;;13.40;99.90;;;;;;5032793;28;20266;-42
2021/08/11 04:09:36;;;;;;;16.17;12.80;;;13.40;99.90;;;;;;5026556;28;20218;-42
2021/08/11 04:12:03;;;;;;;16.77;12.30;;;13.50;99.90;;;;;;5039020;28;20448;-42
2021/08/11 04:14:30;;;;;;;17.03;12.50;;;13.40;99.90;;;;;;5024799;28;20214;-46
2021/08/11 04:16:57;;;;;;;16.03;11.83;;;13.40;99.90;;;;;;5042748;28;20196;-46
2021/08/11 04:19:25;;;;;;;15.47;12.40;;;13.40;99.90;;;;;;5039690;28;20227;-50
2021/08/11 04:21:51;;;;;;;17.57;12.40;;;13.40;99.90;;;;;;5040434;28;20199;-43
2021/08/11 04:24:18;;;;;;;18.87;12.83;;;13.40;99.90;;;;;;5037280;28;20683;-51
2021/08/11 04:26:44;;;;;;;21.63;13.20;;;13.40;99.90;;;;;;5032926;28;20203;-43
2021/08/11 04:29:11;;;;;;;19.27;13.40;;;13.40;99.90;;;;;;5034818;28;20220;-51
2021/08/11 04:31:38;;;;;;;14.23;11.90;;;13.50;99.90;;;;;;5025066;28;20227;-44
2021/08/11 04:34:04;;;;;;;16.00;12.60;;;13.50;99.90;;;;;;5040092;28;20206;-43
2021/08/11 04:36:32;;;;;;;16.17;12.33;;;13.50;99.90;;;;;;5034693;28;20877;-44
2021/08/11 04:38:59;;;;;;;13.00;11.43;;;13.50;99.90;;;;;;5033193;28;20230;-54
2021/08/11 04:41:25;;;;;;;18.03;13.00;;;13.50;99.90;;;;;;5032774;28;20215;-47
2021/08/11 04:43:52;;;;;;;17.73;12.47;;;13.50;99.90;;;;;;5038122;28;20213;-51
2021/08/11 04:46:19;;;;;;;22.73;12.40;;;13.50;99.90;;;;;;5017896;28;20232;-51
2021/08/11 04:48:46;;;;;;;18.13;12.00;;;13.50;99.90;;;;;;5033658;28;20337;-49
2021/08/11 04:51:12;;;;;;;26.07;13.57;;;13.50;99.90;;;;;;5020910;28;20609;-45
2021/08/11 04:53:40;;;;;;;13.27;11.63;;;13.50;99.90;;;;;;5043224;28;20226;-43
2021/08/11 04:56:07;;;;;;;23.83;12.60;;;13.50;99.90;;;;;;5030702;28;20220;-42
2021/08/11 04:58:33;;;;;;;16.23;12.43;;;13.60;99.90;;;;;;5038395;28;20273;-42
2021/08/11 05:01:00;;;;;;;17.80;12.33;;;13.60;99.90;;;;;;5020554;28;20207;-48
2021/08/11 05:03:26;;;;;;;18.63;11.73;;;13.60;99.90;;;;;;5033857;28;20214;-44
2021/08/11 05:05:53;;;;;;;18.97;12.70;;;13.60;99.90;;;;;;5029648;28;20605;-49
2021/08/11 05:08:19;;;;;;;17.07;12.57;;;13.70;99.90;;;;;;5029692;28;20313;-43
2021/08/11 05:10:47;;;;;;;18.97;13.37;;;13.70;99.90;;;;;;5036199;28;20261;-46
2021/08/11 05:13:14;;;;;;;20.17;13.27;;;13.70;99.90;;;;;;5030379;28;20215;-44
2021/08/11 05:15:41;;;;;;;21.17;14.13;;;13.70;99.90;;;;;;5020736;28;20210;-43
2021/08/11 05:18:08;;;;;;;19.20;13.13;;;13.80;99.90;;;;;;5033302;28;20235;-43
2021/08/11 05:20:35;;;;;;;20.63;13.83;;;13.80;99.90;;;;;;5034631;28;20234;-44
2021/08/11 05:23:01;;;;;;;18.90;13.00;;;13.90;99.90;;;;;;5037823;28;20691;-48
2021/08/11 05:25:28;;;;;;;21.97;14.00;;;13.90;99.90;;;;;;5045672;28;20207;-46
2021/08/11 05:27:56;;;;;;;17.60;12.90;;;13.90;99.90;;;;;;5036364;28;20307;-47
2021/08/11 05:30:23;;;;;;;15.30;12.30;;;14.00;99.90;;;;;;5028158;28;20211;-46
2021/08/11 05:32:50;;;;;;;17.47;13.60;;;14.00;99.90;;;;;;5020254;28;20224;-50
2021/08/11 05:35:16;;;;;;;20.80;13.40;;;14.10;99.90;;;;;;5039015;28;20226;-46
2021/08/11 05:37:43;;;;;;;19.23;13.80;;;14.10;99.90;;;;;;5041075;28;20207;-44
2021/08/11 05:40:11;;;;;;;20.57;14.47;;;14.20;99.90;;;;;;5037696;28;20207;-43
2021/08/11 05:42:38;;;;;;;19.23;14.00;;;14.20;99.90;;;;;;5040997;28;20209;-44
2021/08/11 05:45:07;;;;;;;24.93;13.53;;;14.30;99.90;;;;;;5037586;28;20207;-43
2021/08/11 05:47:34;;;;;;;21.30;13.13;;;14.30;99.90;;;;;;5021625;28;20242;-44
2021/08/11 05:50:01;;;;;;;18.67;12.53;;;14.40;99.90;;;;;;5038810;28;20589;-43
2021/08/11 05:52:27;;;;;;;18.23;13.47;;;14.40;99.90;;;;;;5032150;28;20218;-43
2021/08/11 05:54:54;;;;;;;18.83;12.60;;;14.50;99.90;;;;;;5041078;28;20260;-44
2021/08/11 05:57:20;;;;;;;14.87;12.30;;;14.50;99.90;;;;;;5033638;28;20243;-48
2021/08/11 05:59:48;;;;;;;17.27;13.13;;;14.60;99.90;;;;;;5044044;28;20224;-43
2021/08/11 06:02:16;;;;;;;19.00;13.80;;;14.70;99.90;;;;;;5023688;28;20302;-47
2021/08/11 06:04:54;;;;;;;18.17;12.87;;;14.70;99.90;;;;;;5038300;28;20211;-48
2021/08/11 06:07:21;;;;;;;18.67;12.60;;;14.80;99.90;;;;;;5038069;28;20211;-45
2021/08/11 06:09:47;;;;;;;16.57;13.33;;;14.90;99.90;;;;;;5042240;28;20306;-46
2021/08/11 06:12:14;;;;;;;15.83;11.90;;;14.90;99.90;;;;;;5033737;28;20208;-49
2021/08/11 06:14:41;;;;;;;14.43;12.50;;;15.00;99.90;;;;;;5037760;28;20196;-44
2021/08/11 06:17:08;;;;;;;17.57;12.90;;;15.00;99.90;;;;;;5009947;28;21868;-43
2021/08/11 06:19:36;;;;;;;17.60;12.90;;;15.10;99.90;;;;;;5045329;28;20727;-43
2021/08/11 06:22:03;;;;;;;17.27;12.10;;;15.10;99.90;;;;;;5033641;28;20203;-49
2021/08/11 06:24:30;;;;;;;17.00;11.90;;;15.20;99.90;;;;;;5045488;28;20206;-44
2021/08/11 06:26:58;;;;;;;17.67;13.77;;;15.20;99.90;;;;;;5039453;28;20199;-46
2021/08/11 06:29:24;;;;;;;17.93;12.70;;;15.30;99.90;;;;;;5039348;28;20276;-46
2021/08/11 06:31:51;;;;;;;18.70;12.17;;;15.40;99.90;;;;;;5041453;28;20203;-48
2021/08/11 06:34:18;;;;;;;14.10;11.10;;;15.50;99.90;;;;;;5018965;28;20269;-44
2021/08/11 06:36:46;;;;;;;15.17;11.10;;;15.50;99.90;;;;;;5044112;28;20204;-46
2021/08/11 06:39:12;;;;;;;15.73;10.37;;;15.60;99.90;;;;;;5036000;28;20219;-44
2021/08/11 06:41:39;;;;;;;16.20;11.00;;;15.60;99.90;;;;;;5044697;28;20195;-44
2021/08/11 06:44:14;;;;;;;15.90;10.70;;;15.70;99.90;;;;;;5025946;28;21341;-44
2021/08/11 06:46:42;;;;;;;13.27;10.43;;;15.80;99.90;;;;;;5024351;28;20203;-51
2021/08/11 06:49:09;;;;;;;15.00;10.00;;;15.90;99.90;;;;;;5022637;28;20393;-44
2021/08/11 06:51:35;;;;;;;13.23;8.80;;;15.90;99.90;;;;;;5032474;28;20195;-50
2021/08/11 06:54:06;;;;;;;13.93;9.87;;;16.00;99.90;;;;;;5033788;28;20223;-46
2021/08/11 06:56:32;;;;;;;12.67;9.53;;;16.00;99.90;;;;;;5040520;28;20206;-47
2021/08/11 06:58:59;;;;;;;13.23;8.83;;;16.00;99.90;;;;;;5036686;28;20207;-44
2021/08/11 07:01:27;;;;;;;9.87;8.07;;;16.10;99.90;;;;;;5039123;28;20569;-45
2021/08/11 07:03:54;;;;;;;10.17;8.37;;;16.10;99.90;;;;;;5039463;28;20186;-44
2021/08/11 07:06:20;;;;;;;7.67;6.83;;;16.10;99.90;;;;;;5027674;28;20222;-46
2021/08/11 07:08:47;;;;;;;12.17;7.67;;;16.20;99.90;;;;;;5032539;28;20227;-49
2021/08/11 07:11:15;;;;;;;11.17;8.13;;;16.30;99.90;;;;;;5043555;28;20203;-44
2021/08/11 07:13:42;;;;;;;10.30;7.43;;;16.40;99.90;;;;;;5029406;28;20207;-47
2021/08/11 07:16:09;;;;;;;10.87;7.30;;;16.50;99.90;;;;;;5037538;28;20203;-44
2021/08/11 07:18:35;;;;;;;8.20;7.13;;;16.60;99.90;;;;;;5027852;28;20577;-48
2021/08/11 07:21:03;;;;;;;12.83;7.50;;;16.60;99.90;;;;;;5014879;28;20210;-45
2021/08/11 07:23:29;;;;;;;12.67;7.20;;;16.60;99.90;;;;;;5024327;28;20554;-46
2021/08/11 07:25:56;;;;;;;11.97;7.23;;;16.70;99.90;;;;;;5029647;28;20833;-46
2021/08/11 07:28:24;;;;;;;8.93;7.00;;;16.80;99.90;;;;;;5042743;28;20235;-45
2021/08/11 07:30:51;;;;;;;9.20;5.97;;;16.90;99.90;;;;;;5034008;28;20196;-45
2021/08/11 07:33:17;;;;;;;8.30;5.97;;;16.80;99.90;;;;;;5036613;28;20227;-43
2021/08/11 07:35:44;;;;;;;8.20;6.60;;;16.80;99.90;;;;;;5040752;28;20230;-48
2021/08/11 07:38:11;;;;;;;7.07;6.30;;;16.90;99.90;;;;;;5026746;28;20746;-44
2021/08/11 07:40:38;;;;;;;9.40;5.93;;;16.90;99.90;;;;;;5034500;28;20218;-48
2021/08/11 07:43:06;;;;;;;8.07;5.87;;;16.90;99.90;;;;;;5032609;28;20191;-44
2021/08/11 07:45:35;;;;;;;7.60;5.83;;;17.00;99.90;;;;;;5039495;28;20203;-49
2021/08/11 07:48:03;;;;;;;9.17;6.47;;;17.00;99.90;;;;;;5027479;28;20978;-45
2021/08/11 07:50:32;;;;;;;7.67;5.83;;;17.00;99.90;;;;;;5038519;28;20199;-45
2021/08/11 07:52:59;;;;;;;7.43;6.13;;;17.10;99.90;;;;;;5016658;28;20229;-47
2021/08/11 07:55:26;;;;;;;8.70;6.00;;;17.10;99.90;;;;;;5039582;28;20223;-46
2021/08/11 07:57:53;;;;;;;8.30;5.53;;;17.20;99.90;;;;;;5035249;28;21086;-41
2021/08/11 08:00:22;;;;;;;10.50;5.83;;;17.20;99.90;;;;;;5044400;28;20193;-44
2021/08/11 08:02:50;;;;;;;7.07;5.63;;;17.20;99.90;;;;;;5029739;28;20234;-44
2021/08/11 08:05:18;;;;;;;7.83;5.10;;;17.20;99.90;;;;;;5040511;28;20203;-44
2021/08/11 08:07:44;;;;;;;10.30;5.63;;;17.30;99.90;;;;;;5013210;28;20200;-49
2021/08/11 08:10:12;;;;;;;6.33;5.37;;;17.30;99.90;;;;;;5037204;28;20295;-44
2021/08/11 08:12:42;;;;;;;8.03;5.60;;;17.50;99.90;;;;;;5035235;28;20214;-46
2021/08/11 08:15:10;;;;;;;10.80;6.90;;;17.60;99.90;;;;;;5029081;28;20202;-44
2021/08/11 08:17:37;;;;;;;6.53;4.53;;;17.70;99.90;;;;;;5038302;28;20192;-46
2021/08/11 08:20:07;;;;;;;6.47;4.87;;;17.80;99.90;;;;;;5039985;28;20477;-45
2021/08/11 08:22:33;;;;;;;8.87;5.40;;;18.00;99.90;;;;;;5036850;28;20700;-47
2021/08/11 08:25:00;;;;;;;5.73;4.73;;;18.10;99.90;;;;;;5032252;28;20214;-44
2021/08/11 08:27:27;;;;;;;8.37;4.50;;;18.20;99.90;;;;;;5031570;28;20609;-48
2021/08/11 08:29:57;;;;;;;9.37;5.63;;;18.30;99.90;;;;;;5037517;28;20262;-44
2021/08/11 08:32:26;;;;;;;7.83;5.37;;;18.40;99.90;;;;;;5040767;28;20214;-45
2021/08/11 08:34:53;;;;;;;6.57;5.00;;;18.50;99.90;;;;;;5025460;28;20206;-47
2021/08/11 08:37:29;;;;;;;5.73;5.13;;;18.60;99.90;;;;;;5033636;28;20658;-46
2021/08/11 08:39:55;;;;;;;6.20;4.73;;;18.70;99.90;;;;;;5018589;28;20199;-47
2021/08/11 08:42:22;;;;;;;9.80;7.17;;;18.80;99.90;;;;;;5032884;28;20203;-47
2021/08/11 08:44:49;;;;;;;6.10;4.47;;;18.90;99.90;;;;;;5030445;28;20199;-47
2021/08/11 08:47:17;;;;;;;7.27;4.50;;;19.00;99.90;;;;;;5029978;28;20275;-44
2021/08/11 08:49:45;;;;;;;5.90;4.33;;;19.00;99.90;;;;;;5035952;28;20215;-45
2021/08/11 08:52:14;;;;;;;4.60;4.20;;;18.90;99.90;;;;;;5037402;28;20195;-44
2021/08/11 08:54:42;;;;;;;6.57;4.43;;;18.90;99.90;;;;;;5021822;28;20216;-44
2021/08/11 08:57:09;;;;;;;5.20;3.80;;;18.80;99.90;;;;;;5018297;28;20204;-46
2021/08/11 08:59:37;;;;;;;5.20;4.20;;;18.90;99.90;;;;;;5027795;28;20231;-47
2021/08/11 09:02:03;;;;;;;5.97;4.23;;;19.00;99.90;;;;;;5028003;28;20199;-45
2021/08/11 09:04:32;;;;;;;6.90;4.17;;;19.10;99.90;;;;;;5034762;28;20246;-49
2021/08/11 09:07:00;;;;;;;4.37;3.97;;;19.30;99.90;;;;;;5039801;28;20278;-46
2021/08/11 09:09:35;;;;;;;7.93;5.00;;;19.40;99.90;;;;;;5037705;28;20215;-49
2021/08/11 09:12:11;;;;;;;4.10;3.70;;;19.50;99.90;;;;;;5038371;28;20201;-44
2021/08/11 09:14:41;;;;;;;5.73;4.20;;;19.40;99.90;;;;;;5028164;28;20216;-48
2021/08/11 09:17:08;;;;;;;4.73;4.20;;;19.30;99.90;;;;;;5030250;28;20195;-46
2021/08/11 09:19:40;;;;;;;4.00;3.60;;;19.40;99.90;;;;;;5027901;28;20724;-46
2021/08/11 09:22:08;;;;;;;6.57;4.27;;;19.60;99.90;;;;;;5042948;28;20299;-44
2021/08/11 09:24:36;;;;;;;4.30;3.87;;;19.60;99.90;;;;;;5032975;28;20200;-49
2021/08/11 09:27:22;;;;;;;6.77;4.80;;;19.60;99.90;;;;;;5018807;28;20788;-45
2021/08/11 09:30:10;;;;;;;9.03;5.47;;;19.70;99.90;;;;;;5031504;28;20211;-44
2021/08/11 09:32:57;;;;;;;4.03;3.70;;;19.80;99.90;;;;;;5024192;28;20200;-46
2021/08/11 09:35:26;;;;;;;6.20;3.70;;;19.80;99.90;;;;;;5023233;28;20227;-48
2021/08/11 09:37:54;;;;;;;4.70;3.83;;;19.90;99.90;;;;;;5035634;28;21013;-44
2021/08/11 09:40:23;;;;;;;6.43;4.03;;;19.90;99.90;;;;;;5036108;28;20216;-44
2021/08/11 09:42:54;;;;;;;5.67;3.50;;;20.00;99.90;;;;;;5019295;28;20714;-45
2021/08/11 09:45:21;;;;;;;5.13;4.47;;;20.00;99.90;;;;;;5028840;28;20238;-44
2021/08/11 09:47:56;;;;;;;6.10;4.60;;;19.90;99.90;;;;;;5032356;28;20187;-44
2021/08/11 09:50:44;;;;;;;6.67;4.60;;;19.90;99.90;;;;;;5040415;28;20195;-49
2021/08/11 09:53:11;;;;;;;3.93;3.60;;;19.90;99.90;;;;;;5036068;28;20665;-45
2021/08/11 09:56:05;;;;;;;4.77;4.00;;;19.80;99.90;;;;;;5039086;28;20215;-49
2021/08/11 09:58:36;;;;;;;6.67;3.90;;;19.60;99.90;;;;;;5024562;28;20562;-50
2021/08/11 10:01:04;;;;;;;4.87;4.47;;;19.60;99.90;;;;;;5033807;28;20688;-44
2021/08/11 10:03:31;;;;;;;5.03;4.33;;;19.60;99.90;;;;;;5039300;28;20726;-47
2021/08/11 10:05:58;;;;;;;7.90;3.90;;;19.60;99.90;;;;;;5039696;28;20194;-44
2021/08/11 10:08:31;;;;;;;4.53;3.70;;;19.60;99.90;;;;;;5027710;28;20326;-46
2021/08/11 10:10:59;;;;;;;5.37;4.00;;;19.70;99.90;;;;;;5030976;28;20275;-45
2021/08/11 10:13:25;;;;;;;4.00;3.10;;;19.80;99.90;;;;;;5023317;28;20223;-44
2021/08/11 10:15:54;;;;;;;4.70;3.43;;;19.90;99.90;;;;;;5028920;28;20199;-44
2021/08/11 10:18:24;;;;;;;4.13;3.60;;;20.00;99.90;;;;;;5037364;28;20226;-47
2021/08/11 10:20:54;;;;;;;5.00;4.50;;;20.00;99.90;;;;;;5033436;28;20243;-48
2021/08/11 10:23:21;;;;;;;5.10;3.73;;;20.10;99.90;;;;;;5033067;28;20195;-47
2021/08/11 10:25:49;;;;;;;5.10;3.03;;;20.30;99.90;;;;;;5043495;28;20199;-43
2021/08/11 10:28:22;;;;;;;4.67;3.37;;;20.30;99.90;;;;;;5024131;28;20239;-46
2021/08/11 10:30:51;;;;;;;3.30;3.00;;;20.20;99.90;;;;;;5046040;28;20187;-45
2021/08/11 10:33:19;;;;;;;4.87;3.00;;;20.10;99.90;;;;;;5036689;28;20203;-47
2021/08/11 10:35:47;;;;;;;3.67;3.30;;;20.10;99.90;;;;;;5041666;28;20214;-44
2021/08/11 10:38:15;;;;;;;4.93;2.93;;;20.10;99.90;;;;;;5036088;28;20851;-45
2021/08/11 10:40:43;;;;;;;3.57;2.80;;;20.20;99.90;;;;;;5045515;28;20191;-46
2021/08/11 10:43:13;;;;;;;4.67;3.13;;;20.20;99.90;;;;;;5024759;28;20192;-46
2021/08/11 10:45:43;;;;;;;5.90;3.13;;;20.20;99.90;;;;;;5023450;28;21786;-47
2021/08/11 10:48:17;;;;;;;4.90;3.30;;;20.30;99.90;;;;;;5035579;28;20231;-48
2021/08/11 10:50:46;;;;;;;5.27;2.97;;;20.40;99.90;;;;;;5038514;28;20201;-46
2021/08/11 10:53:14;;;;;;;4.33;3.93;;;20.50;99.90;;;;;;5041642;28;20846;-44
2021/08/11 10:55:44;;;;;;;4.63;3.03;;;20.70;99.90;;;;;;5040624;28;20278;-45
2021/08/11 10:58:11;;;;;;;4.97;2.90;;;20.90;99.90;;;;;;5041738;28;20215;-47
2021/08/11 11:00:41;;;;;;;7.03;3.63;;;21.10;99.90;;;;;;5024345;28;20212;-47
2021/08/11 11:03:09;;;;;;;3.20;2.47;;;21.20;99.90;;;;;;5034315;28;20208;-48
2021/08/11 11:05:57;;;;;;;3.33;1.92;;;21.30;99.90;;;;;;5031583;28;20692;-44
2021/08/11 11:08:32;;;;;;;3.00;2.28;;;21.30;99.90;;;;;;5038672;28;20215;-44
2021/08/11 11:11:35;;;;;;;3.60;2.83;;;21.30;99.90;;;;;;5034951;28;20205;-49
2021/08/11 11:14:06;;;;;;;3.33;2.70;;;21.20;99.90;;;;;;5026221;28;20227;-44
2021/08/11 11:17:10;;;;;;;3.03;2.50;;;21.10;99.90;;;;;;5022090;28;20199;-44
2021/08/11 11:20:26;;;;;;;3.15;2.58;;;21.10;99.90;;;;;;5034745;28;20206;-46
2021/08/11 11:23:05;;;;;;;3.15;2.45;;;21.00;99.90;;;;;;5030400;28;20204;-44
2021/08/11 11:25:58;;;;;;;2.00;1.90;;;21.10;99.90;;;;;;5035324;28;20745;-49
2021/08/11 11:28:59;;;;;;;3.28;2.45;;;21.20;99.90;;;;;;5038942;28;20250;-48
2021/08/11 11:31:42;;;;;;;3.50;2.10;;;21.30;99.90;;;;;;5020507;28;20220;-47
2021/08/11 11:34:23;;;;;;;3.08;2.80;;;21.50;99.90;;;;;;5038124;28;20771;-47
2021/08/11 11:37:23;;;;;;;3.67;2.28;;;21.50;99.90;;;;;;5032709;28;20231;-44
2021/08/11 11:40:14;;;;;;;3.83;2.42;;;21.60;99.90;;;;;;5041983;28;20290;-45
2021/08/11 11:42:41;;;;;;;4.90;2.67;;;21.60;99.90;;;;;;5029701;28;20203;-45
2021/08/11 11:45:10;;;;;;;3.00;2.28;;;21.50;99.90;;;;;;5023637;28;20208;-45
2021/08/11 11:48:12;;;;;;;3.95;2.50;;;21.40;99.90;;;;;;5029011;28;20286;-45
2021/08/11 11:50:47;;;;;;;2.90;2.47;;;21.40;99.90;;;;;;5029216;28;20192;-50
2021/08/11 11:53:30;;;;;;;2.65;2.35;;;21.60;99.90;;;;;;5029977;28;20206;-49
2021/08/11 11:55:57;;;;;;;2.95;2.75;;;21.50;99.90;;;;;;5035048;28;20250;-44
2021/08/11 11:58:25;;;;;;;4.45;3.33;;;21.40;99.90;;;;;;5034119;28;20215;-45
2021/08/11 12:00:59;;;;;;;3.88;2.85;;;21.40;99.90;;;;;;5024752;28;20203;-47
2021/08/11 12:03:36;;;;;;;3.35;2.42;;;21.40;99.90;;;;;;5040071;28;20190;-45
2021/08/11 12:06:03;;;;;;;3.00;2.10;;;21.50;99.90;;;;;;5034705;28;20660;-45
2021/08/11 12:08:31;;;;;;;4.38;2.40;;;21.60;99.90;;;;;;5033210;28;20230;-43
2021/08/11 12:11:09;;;;;;;2.58;1.95;;;21.80;99.90;;;;;;5040018;28;20215;-43
2021/08/11 12:13:40;;;;;;;3.00;2.45;;;21.90;99.90;;;;;;5037482;28;20257;-44
2021/08/11 12:16:07;;;;;;;3.42;2.63;;;22.00;99.90;;;;;;5019718;28;20207;-47
2021/08/11 12:18:35;;;;;;;3.33;2.65;;;22.10;99.90;;;;;;5027440;28;20227;-47
2021/08/11 12:21:02;;;;;;;2.45;1.75;;;22.20;99.90;;;;;;5029072;28;20227;-45
2021/08/11 12:23:30;;;;;;;6.43;1.98;;;22.20;99.90;;;;;;5032595;28;20211;-44
2021/08/11 12:25:59;;;;;;;3.97;2.40;;;22.10;99.90;;;;;;5041795;28;20195;-50
2021/08/11 12:28:27;;;;;;;5.30;2.20;;;22.00;99.90;;;;;;5029896;28;20223;-49
2021/08/11 12:30:57;;;;;;;5.25;2.00;;;22.00;99.90;;;;;;5039602;28;20210;-50
2021/08/11 12:33:25;;;;;;;2.45;2.13;;;22.00;99.90;;;;;;5019414;28;21252;-47
2021/08/11 12:35:55;;;;;;;3.88;2.10;;;22.10;99.90;;;;;;5033956;28;20215;-44
2021/08/11 12:38:33;;;;;;;2.58;2.30;;;22.20;99.90;;;;;;5029221;28;20946;-44
2021/08/11 12:41:14;;;;;;;3.55;2.30;;;22.40;99.90;;;;;;5040710;28;20322;-48
2021/08/11 12:43:41;;;;;;;3.40;2.35;;;22.50;99.90;;;;;;5034225;28;20203;-43
2021/08/11 12:46:09;;;;;;;4.32;2.50;;;22.40;99.90;;;;;;5038814;28;20183;-45
2021/08/11 12:48:36;;;;;;;3.95;2.25;;;22.40;99.90;;;;;;5024201;28;20227;-45
2021/08/11 12:51:07;;;;;;;2.13;2.00;;;22.30;99.90;;;;;;5034197;28;20191;-49